sensor_id;sensor_type;location;lat;lon;timestamp;temperature;humidity
26595;DHT22;14238;49.496;8.154;2022-11-20T00:00:51;2.80;99.90
26595;DHT22;14238;49.496;8.154;2022-11-20T00:03:16;2.90;99.90
26595;DHT22;14238;49.496;8.154;2022-11-20T00:05:43;2.80;99.90
26595;DHT22;14238;49.496;8.154;2022-11-20T00:08:10;2.80;99.90
26595;DHT22;14238;49.496;8.154;2022-11-20T00:10:37;2.80;99.90
26595;DHT22;14238;49.496;8.154;2022-11-20T00:13:02;2.80;99.90
26595;DHT22;14238;49.496;8.154;2022-11-20T00:15:28;2.80;99.90
26595;DHT22;14238;49.496;8.154;2022-11-20T00:17:54;2.80;99.90
26595;DHT22;14238;49.496;8.154;2022-11-20T00:20:19;2.80;99.90
26595;DHT22;14238;49.496;8.154;2022-11-20T00:22:45;2.70;99.90
26595;DHT22;14238;49.496;8.154;2022-11-20T00:25:10;2.80;99.90
26595;DHT22;14238;49.496;8.154;2022-11-20T00:27:37;2.80;99.90
26595;DHT22;14238;49.496;8.154;2022-11-20T00:30:03;2.70;99.90
26595;DHT22;14238;49.496;8.154;2022-11-20T00:32:29;2.70;99.90
26595;DHT22;14238;49.496;8.154;2022-11-20T00:34:55;2.70;99.90
26595;DHT22;14238;49.496;8.154;2022-11-20T00:37:20;2.70;99.90
26595;DHT22;14238;49.496;8.154;2022-11-20T00:39:46;2.70;99.90
26595;DHT22;14238;49.496;8.154;2022-11-20T00:42:11;2.60;99.90
26595;DHT22;14238;49.496;8.154;2022-11-20T00:44:37;2.60;99.90
26595;DHT22;14238;49.496;8.154;2022-11-20T00:47:03;2.60;99.90
26595;DHT22;14238;49.496;8.154;2022-11-20T00:49:28;2.60;99.90
26595;DHT22;14238;49.496;8.154;2022-11-20T00:51:54;2.60;99.90
26595;DHT22;14238;49.496;8.154;2022-11-20T00:54:19;2.60;99.90
26595;DHT22;14238;49.496;8.154;2022-11-20T00:56:45;2.70;99.90
26595;DHT22;14238;49.496;8.154;2022-11-20T00:59:10;2.70;99.90
26595;DHT22;14238;49.496;8.154;2022-11-20T01:01:37;2.80;99.90
26595;DHT22;14238;49.496;8.154;2022-11-20T01:04:02;2.80;99.90
26595;DHT22;14238;49.496;8.154;2022-11-20T01:06:30;2.90;99.90
26595;DHT22;14238;49.496;8.154;2022-11-20T01:08:58;2.80;99.90
26595;DHT22;14238;49.496;8.154;2022-11-20T01:11:30;2.80;99.90
26595;DHT22;14238;49.496;8.154;2022-11-20T01:13:57;2.80;99.90
26595;DHT22;14238;49.496;8.154;2022-11-20T01:16:26;2.90;99.90
26595;DHT22;14238;49.496;8.154;2022-11-20T01:18:54;2.80;99.90
26595;DHT22;14238;49.496;8.154;2022-11-20T01:21:35;2.80;99.90
26595;DHT22;14238;49.496;8.154;2022-11-20T01:24:02;2.90;99.90
26595;DHT22;14238;49.496;8.154;2022-11-20T01:26:31;2.90;99.90
26595;DHT22;14238;49.496;8.154;2022-11-20T01:28:57;2.70;99.90
26595;DHT22;14238;49.496;8.154;2022-11-20T01:31:36;2.60;99.90
26595;DHT22;14238;49.496;8.154;2022-11-20T01:34:07;2.70;99.90
26595;DHT22;14238;49.496;8.154;2022-11-20T01:36:35;2.70;99.90
26595;DHT22;14238;49.496;8.154;2022-11-20T01:39:04;2.60;99.90
26595;DHT22;14238;49.496;8.154;2022-11-20T01:41:31;2.60;99.90
26595;DHT22;14238;49.496;8.154;2022-11-20T01:44:18;2.50;99.90
26595;DHT22;14238;49.496;8.154;2022-11-20T01:47:02;2.60;99.90
26595;DHT22;14238;49.496;8.154;2022-11-20T01:49:45;2.60;99.90
26595;DHT22;14238;49.496;8.154;2022-11-20T01:52:23;2.70;99.90
26595;DHT22;14238;49.496;8.154;2022-11-20T01:54:58;2.70;99.90
26595;DHT22;14238;49.496;8.154;2022-11-20T01:57:27;2.70;99.90
26595;DHT22;14238;49.496;8.154;2022-11-20T01:59:59;2.70;99.90
26595;DHT22;14238;49.496;8.154;2022-11-20T02:02:25;2.70;99.90
26595;DHT22;14238;49.496;8.154;2022-11-20T02:04:54;2.70;99.90
26595;DHT22;14238;49.496;8.154;2022-11-20T02:07:21;2.70;99.90
26595;DHT22;14238;49.496;8.154;2022-11-20T02:09:48;2.80;99.90
26595;DHT22;14238;49.496;8.154;2022-11-20T02:12:13;2.80;99.90
26595;DHT22;14238;49.496;8.154;2022-11-20T02:14:59;2.80;99.90
26595;DHT22;14238;49.496;8.154;2022-11-20T02:17:25;2.80;99.90
26595;DHT22;14238;49.496;8.154;2022-11-20T02:19:51;2.80;99.90
26595;DHT22;14238;49.496;8.154;2022-11-20T02:22:28;2.80;99.90
26595;DHT22;14238;49.496;8.154;2022-11-20T02:24:56;2.80;99.90
26595;DHT22;14238;49.496;8.154;2022-11-20T02:27:24;2.70;99.90
26595;DHT22;14238;49.496;8.154;2022-11-20T02:30:00;2.70;99.90
26595;DHT22;14238;49.496;8.154;2022-11-20T02:32:29;2.70;99.90
26595;DHT22;14238;49.496;8.154;2022-11-20T02:34:55;2.70;99.90
26595;DHT22;14238;49.496;8.154;2022-11-20T02:37:22;2.80;99.90
26595;DHT22;14238;49.496;8.154;2022-11-20T02:39:50;2.70;99.90
26595;DHT22;14238;49.496;8.154;2022-11-20T02:42:16;2.80;99.90
26595;DHT22;14238;49.496;8.154;2022-11-20T02:44:42;2.70;99.90
26595;DHT22;14238;49.496;8.154;2022-11-20T02:47:08;2.70;99.90
26595;DHT22;14238;49.496;8.154;2022-11-20T02:49:34;2.60;99.90
26595;DHT22;14238;49.496;8.154;2022-11-20T02:51:59;2.70;99.90
26595;DHT22;14238;49.496;8.154;2022-11-20T02:54:25;2.70;99.90
26595;DHT22;14238;49.496;8.154;2022-11-20T02:56:51;2.70;99.90
26595;DHT22;14238;49.496;8.154;2022-11-20T02:59:16;2.70;99.90
26595;DHT22;14238;49.496;8.154;2022-11-20T03:01:42;2.70;99.90
26595;DHT22;14238;49.496;8.154;2022-11-20T03:04:07;2.80;99.90
26595;DHT22;14238;49.496;8.154;2022-11-20T03:06:33;2.80;99.90
26595;DHT22;14238;49.496;8.154;2022-11-20T03:08:58;2.80;99.90
26595;DHT22;14238;49.496;8.154;2022-11-20T03:11:24;2.80;99.90
26595;DHT22;14238;49.496;8.154;2022-11-20T03:13:50;2.80;99.90
26595;DHT22;14238;49.496;8.154;2022-11-20T03:16:21;2.80;99.90
26595;DHT22;14238;49.496;8.154;2022-11-20T03:18:48;2.80;99.90
26595;DHT22;14238;49.496;8.154;2022-11-20T03:21:14;2.80;99.90
26595;DHT22;14238;49.496;8.154;2022-11-20T03:23:40;2.80;99.90
26595;DHT22;14238;49.496;8.154;2022-11-20T03:26:16;2.80;99.90
26595;DHT22;14238;49.496;8.154;2022-11-20T03:28:46;2.80;99.90
26595;DHT22;14238;49.496;8.154;2022-11-20T03:31:13;2.80;99.90
26595;DHT22;14238;49.496;8.154;2022-11-20T03:33:40;2.70;99.90
26595;DHT22;14238;49.496;8.154;2022-11-20T03:36:09;2.80;99.90
26595;DHT22;14238;49.496;8.154;2022-11-20T03:38:35;2.80;99.90
26595;DHT22;14238;49.496;8.154;2022-11-20T03:41:03;2.80;99.90
26595;DHT22;14238;49.496;8.154;2022-11-20T03:43:29;2.70;99.90
26595;DHT22;14238;49.496;8.154;2022-11-20T03:45:54;2.70;99.90
26595;DHT22;14238;49.496;8.154;2022-11-20T03:48:20;2.70;99.90
26595;DHT22;14238;49.496;8.154;2022-11-20T03:50:46;2.80;99.90
26595;DHT22;14238;49.496;8.154;2022-11-20T03:53:13;2.70;99.90
26595;DHT22;14238;49.496;8.154;2022-11-20T03:55:39;2.80;99.90
26595;DHT22;14238;49.496;8.154;2022-11-20T03:58:04;2.80;99.90
26595;DHT22;14238;49.496;8.154;2022-11-20T04:00:30;2.80;99.90
26595;DHT22;14238;49.496;8.154;2022-11-20T04:02:59;2.70;99.90
26595;DHT22;14238;49.496;8.154;2022-11-20T04:05:25;2.60;99.90
26595;DHT22;14238;49.496;8.154;2022-11-20T04:07:50;2.60;99.90
26595;DHT22;14238;49.496;8.154;2022-11-20T04:10:16;2.60;99.90
26595;DHT22;14238;49.496;8.154;2022-11-20T04:12:42;2.60;99.90
26595;DHT22;14238;49.496;8.154;2022-11-20T04:15:08;2.60;99.90
26595;DHT22;14238;49.496;8.154;2022-11-20T04:17:34;2.60;99.90
26595;DHT22;14238;49.496;8.154;2022-11-20T04:19:59;2.60;99.90
26595;DHT22;14238;49.496;8.154;2022-11-20T04:22:25;2.70;99.90
26595;DHT22;14238;49.496;8.154;2022-11-20T04:24:50;2.70;99.90
26595;DHT22;14238;49.496;8.154;2022-11-20T04:27:16;2.70;99.90
26595;DHT22;14238;49.496;8.154;2022-11-20T04:29:42;2.80;99.90
26595;DHT22;14238;49.496;8.154;2022-11-20T04:32:07;2.80;99.90
26595;DHT22;14238;49.496;8.154;2022-11-20T04:34:33;2.80;99.90
26595;DHT22;14238;49.496;8.154;2022-11-20T04:36:58;2.80;99.90
26595;DHT22;14238;49.496;8.154;2022-11-20T04:39:24;2.80;99.90
26595;DHT22;14238;49.496;8.154;2022-11-20T04:41:49;2.90;99.90
26595;DHT22;14238;49.496;8.154;2022-11-20T04:44:35;2.80;99.90
26595;DHT22;14238;49.496;8.154;2022-11-20T04:47:00;2.80;99.90
26595;DHT22;14238;49.496;8.154;2022-11-20T04:49:26;2.80;99.90
26595;DHT22;14238;49.496;8.154;2022-11-20T04:51:54;2.80;99.90
26595;DHT22;14238;49.496;8.154;2022-11-20T04:54:20;2.80;99.90
26595;DHT22;14238;49.496;8.154;2022-11-20T04:56:47;2.80;99.90
26595;DHT22;14238;49.496;8.154;2022-11-20T04:59:13;2.80;99.90
26595;DHT22;14238;49.496;8.154;2022-11-20T05:01:39;2.90;99.90
26595;DHT22;14238;49.496;8.154;2022-11-20T05:04:04;2.80;99.90
26595;DHT22;14238;49.496;8.154;2022-11-20T05:06:31;2.90;99.90
26595;DHT22;14238;49.496;8.154;2022-11-20T05:08:57;2.90;99.90
26595;DHT22;14238;49.496;8.154;2022-11-20T05:11:23;2.90;99.90
26595;DHT22;14238;49.496;8.154;2022-11-20T05:13:50;2.90;99.90
26595;DHT22;14238;49.496;8.154;2022-11-20T05:16:18;2.80;99.90
26595;DHT22;14238;49.496;8.154;2022-11-20T05:18:44;2.80;99.90
26595;DHT22;14238;49.496;8.154;2022-11-20T05:21:11;2.80;99.90
26595;DHT22;14238;49.496;8.154;2022-11-20T05:23:38;2.80;99.90
26595;DHT22;14238;49.496;8.154;2022-11-20T05:26:07;2.80;99.90
26595;DHT22;14238;49.496;8.154;2022-11-20T05:28:33;2.90;99.90
26595;DHT22;14238;49.496;8.154;2022-11-20T05:31:10;2.80;99.90
26595;DHT22;14238;49.496;8.154;2022-11-20T05:33:36;2.80;99.90
26595;DHT22;14238;49.496;8.154;2022-11-20T05:36:03;2.80;99.90
26595;DHT22;14238;49.496;8.154;2022-11-20T05:38:29;2.90;99.90
26595;DHT22;14238;49.496;8.154;2022-11-20T05:40:55;2.80;99.90
26595;DHT22;14238;49.496;8.154;2022-11-20T05:43:20;2.90;99.90
26595;DHT22;14238;49.496;8.154;2022-11-20T05:45:53;2.80;99.90
26595;DHT22;14238;49.496;8.154;2022-11-20T05:48:19;2.90;99.90
26595;DHT22;14238;49.496;8.154;2022-11-20T05:50:44;2.90;99.90
26595;DHT22;14238;49.496;8.154;2022-11-20T05:53:10;2.90;99.90
26595;DHT22;14238;49.496;8.154;2022-11-20T05:55:35;2.90;99.90
26595;DHT22;14238;49.496;8.154;2022-11-20T05:58:01;2.80;99.90
26595;DHT22;14238;49.496;8.154;2022-11-20T06:00:26;2.80;99.90
26595;DHT22;14238;49.496;8.154;2022-11-20T06:02:52;2.80;99.90
26595;DHT22;14238;49.496;8.154;2022-11-20T06:05:17;2.80;99.90
26595;DHT22;14238;49.496;8.154;2022-11-20T06:07:43;2.80;99.90
26595;DHT22;14238;49.496;8.154;2022-11-20T06:10:09;2.90;99.90
26595;DHT22;14238;49.496;8.154;2022-11-20T06:12:35;2.90;99.90
26595;DHT22;14238;49.496;8.154;2022-11-20T06:15:00;2.90;99.90
26595;DHT22;14238;49.496;8.154;2022-11-20T06:17:26;3.00;99.90
26595;DHT22;14238;49.496;8.154;2022-11-20T06:19:51;3.00;99.90
26595;DHT22;14238;49.496;8.154;2022-11-20T06:22:17;3.00;99.90
26595;DHT22;14238;49.496;8.154;2022-11-20T06:24:44;2.90;99.90
26595;DHT22;14238;49.496;8.154;2022-11-20T06:27:09;2.90;99.90
26595;DHT22;14238;49.496;8.154;2022-11-20T06:29:35;2.80;99.90
26595;DHT22;14238;49.496;8.154;2022-11-20T06:32:01;2.80;99.90
26595;DHT22;14238;49.496;8.154;2022-11-20T06:34:26;2.80;99.90
26595;DHT22;14238;49.496;8.154;2022-11-20T06:36:52;2.80;99.90
26595;DHT22;14238;49.496;8.154;2022-11-20T06:39:17;2.80;99.90
26595;DHT22;14238;49.496;8.154;2022-11-20T06:41:43;2.80;99.90
26595;DHT22;14238;49.496;8.154;2022-11-20T06:44:09;2.70;99.90
26595;DHT22;14238;49.496;8.154;2022-11-20T06:46:34;2.80;99.90
26595;DHT22;14238;49.496;8.154;2022-11-20T06:49:00;2.90;99.90
26595;DHT22;14238;49.496;8.154;2022-11-20T06:51:25;2.90;99.90
26595;DHT22;14238;49.496;8.154;2022-11-20T06:53:51;2.90;99.90
26595;DHT22;14238;49.496;8.154;2022-11-20T06:56:17;2.90;99.90
26595;DHT22;14238;49.496;8.154;2022-11-20T06:58:42;2.90;99.90
26595;DHT22;14238;49.496;8.154;2022-11-20T07:01:13;2.90;99.90
26595;DHT22;14238;49.496;8.154;2022-11-20T07:03:40;2.90;99.90
26595;DHT22;14238;49.496;8.154;2022-11-20T07:06:06;2.90;99.90
26595;DHT22;14238;49.496;8.154;2022-11-20T07:08:33;2.80;99.90
26595;DHT22;14238;49.496;8.154;2022-11-20T07:11:00;2.90;99.90
26595;DHT22;14238;49.496;8.154;2022-11-20T07:13:27;2.80;99.90
26595;DHT22;14238;49.496;8.154;2022-11-20T07:15:53;2.80;99.90
26595;DHT22;14238;49.496;8.154;2022-11-20T07:18:18;2.80;99.90
26595;DHT22;14238;49.496;8.154;2022-11-20T07:20:44;2.90;99.90
26595;DHT22;14238;49.496;8.154;2022-11-20T07:23:09;2.90;99.90
26595;DHT22;14238;49.496;8.154;2022-11-20T07:25:35;2.90;99.90
26595;DHT22;14238;49.496;8.154;2022-11-20T07:28:01;3.00;99.90
26595;DHT22;14238;49.496;8.154;2022-11-20T07:30:28;3.00;99.90
26595;DHT22;14238;49.496;8.154;2022-11-20T07:32:55;3.00;99.90
26595;DHT22;14238;49.496;8.154;2022-11-20T07:35:21;3.00;99.90
26595;DHT22;14238;49.496;8.154;2022-11-20T07:37:47;3.10;99.90
26595;DHT22;14238;49.496;8.154;2022-11-20T07:40:14;3.10;99.90
26595;DHT22;14238;49.496;8.154;2022-11-20T07:42:55;3.10;99.90
26595;DHT22;14238;49.496;8.154;2022-11-20T07:45:23;3.20;99.90
26595;DHT22;14238;49.496;8.154;2022-11-20T07:47:49;3.30;99.90
26595;DHT22;14238;49.496;8.154;2022-11-20T07:50:15;3.20;99.90
26595;DHT22;14238;49.496;8.154;2022-11-20T07:52:40;3.30;99.90
26595;DHT22;14238;49.496;8.154;2022-11-20T07:55:07;3.30;99.90
26595;DHT22;14238;49.496;8.154;2022-11-20T07:57:33;3.30;99.90
26595;DHT22;14238;49.496;8.154;2022-11-20T07:59:58;3.40;99.90
26595;DHT22;14238;49.496;8.154;2022-11-20T08:02:24;3.40;99.90
26595;DHT22;14238;49.496;8.154;2022-11-20T08:04:50;3.50;99.90
26595;DHT22;14238;49.496;8.154;2022-11-20T08:07:15;3.50;99.90
26595;DHT22;14238;49.496;8.154;2022-11-20T08:09:41;3.50;99.90
26595;DHT22;14238;49.496;8.154;2022-11-20T08:12:06;3.50;99.90
26595;DHT22;14238;49.496;8.154;2022-11-20T08:14:50;3.60;99.90
26595;DHT22;14238;49.496;8.154;2022-11-20T08:17:16;3.60;99.90
26595;DHT22;14238;49.496;8.154;2022-11-20T08:19:41;3.70;99.90
26595;DHT22;14238;49.496;8.154;2022-11-20T08:22:07;3.70;99.90
26595;DHT22;14238;49.496;8.154;2022-11-20T08:24:32;3.60;99.90
26595;DHT22;14238;49.496;8.154;2022-11-20T08:26:58;3.60;99.90
26595;DHT22;14238;49.496;8.154;2022-11-20T08:29:26;3.60;99.90
26595;DHT22;14238;49.496;8.154;2022-11-20T08:31:51;3.60;99.90
26595;DHT22;14238;49.496;8.154;2022-11-20T08:34:17;3.60;99.90
26595;DHT22;14238;49.496;8.154;2022-11-20T08:36:42;3.60;99.90
26595;DHT22;14238;49.496;8.154;2022-11-20T08:39:11;3.60;99.90
26595;DHT22;14238;49.496;8.154;2022-11-20T08:41:37;3.60;99.90
26595;DHT22;14238;49.496;8.154;2022-11-20T08:44:05;3.70;99.90
26595;DHT22;14238;49.496;8.154;2022-11-20T08:46:34;3.80;99.90
26595;DHT22;14238;49.496;8.154;2022-11-20T08:49:01;3.80;99.90
26595;DHT22;14238;49.496;8.154;2022-11-20T08:51:27;3.80;99.90
26595;DHT22;14238;49.496;8.154;2022-11-20T08:53:53;3.90;99.90
26595;DHT22;14238;49.496;8.154;2022-11-20T08:56:18;4.20;99.90
26595;DHT22;14238;49.496;8.154;2022-11-20T08:58:44;4.30;99.90
26595;DHT22;14238;49.496;8.154;2022-11-20T09:01:10;4.40;99.90
26595;DHT22;14238;49.496;8.154;2022-11-20T09:03:35;5.10;99.90
26595;DHT22;14238;49.496;8.154;2022-11-20T09:06:03;5.30;99.90
26595;DHT22;14238;49.496;8.154;2022-11-20T09:08:29;5.40;99.90
26595;DHT22;14238;49.496;8.154;2022-11-20T09:10:56;5.70;99.90
26595;DHT22;14238;49.496;8.154;2022-11-20T09:13:23;5.70;99.90
26595;DHT22;14238;49.496;8.154;2022-11-20T09:16:09;5.80;99.90
26595;DHT22;14238;49.496;8.154;2022-11-20T09:18:35;5.50;99.90
26595;DHT22;14238;49.496;8.154;2022-11-20T09:21:05;5.40;99.90
26595;DHT22;14238;49.496;8.154;2022-11-20T09:23:33;5.40;99.90
26595;DHT22;14238;49.496;8.154;2022-11-20T09:26:13;5.50;99.90
26595;DHT22;14238;49.496;8.154;2022-11-20T09:28:39;5.20;99.90
26595;DHT22;14238;49.496;8.154;2022-11-20T09:31:17;5.10;99.90
26595;DHT22;14238;49.496;8.154;2022-11-20T09:33:44;5.00;99.90
26595;DHT22;14238;49.496;8.154;2022-11-20T09:36:10;4.80;99.90
26595;DHT22;14238;49.496;8.154;2022-11-20T09:38:35;4.90;99.90
26595;DHT22;14238;49.496;8.154;2022-11-20T09:41:06;5.00;99.90
26595;DHT22;14238;49.496;8.154;2022-11-20T09:43:58;5.00;99.90
26595;DHT22;14238;49.496;8.154;2022-11-20T09:55:12;5.00;99.90
26595;DHT22;14238;49.496;8.154;2022-11-20T09:57:44;5.00;99.90
26595;DHT22;14238;49.496;8.154;2022-11-20T10:00:13;4.90;99.90
26595;DHT22;14238;49.496;8.154;2022-11-20T10:08:19;5.00;99.90
26595;DHT22;14238;49.496;8.154;2022-11-20T10:10:50;5.10;99.90
26595;DHT22;14238;49.496;8.154;2022-11-20T10:13:38;5.80;99.90
26595;DHT22;14238;49.496;8.154;2022-11-20T10:25:05;6.30;99.90
26595;DHT22;14238;49.496;8.154;2022-11-20T10:30:20;6.50;99.90
26595;DHT22;14238;49.496;8.154;2022-11-20T10:32:50;6.60;99.90
26595;DHT22;14238;49.496;8.154;2022-11-20T10:35:41;6.70;99.90
26595;DHT22;14238;49.496;8.154;2022-11-20T10:38:19;6.70;99.90
26595;DHT22;14238;49.496;8.154;2022-11-20T10:40:50;6.70;99.90
26595;DHT22;14238;49.496;8.154;2022-11-20T10:43:33;6.90;99.90
26595;DHT22;14238;49.496;8.154;2022-11-20T10:46:03;7.20;99.90
26595;DHT22;14238;49.496;8.154;2022-11-20T10:48:31;7.60;99.90
26595;DHT22;14238;49.496;8.154;2022-11-20T10:56:40;7.90;99.90
26595;DHT22;14238;49.496;8.154;2022-11-20T10:59:37;7.90;99.90
26595;DHT22;14238;49.496;8.154;2022-11-20T11:02:24;8.10;99.90
26595;DHT22;14238;49.496;8.154;2022-11-20T11:04:58;8.00;99.90
26595;DHT22;14238;49.496;8.154;2022-11-20T11:07:38;8.30;99.90
26595;DHT22;14238;49.496;8.154;2022-11-20T11:12:46;8.70;99.90
26595;DHT22;14238;49.496;8.154;2022-11-20T11:17:51;9.10;99.90
26595;DHT22;14238;49.496;8.154;2022-11-20T11:20:19;9.10;99.90
26595;DHT22;14238;49.496;8.154;2022-11-20T11:22:53;9.00;99.90
26595;DHT22;14238;49.496;8.154;2022-11-20T11:25:26;9.00;99.90
26595;DHT22;14238;49.496;8.154;2022-11-20T11:27:54;9.00;99.90
26595;DHT22;14238;49.496;8.154;2022-11-20T11:30:23;9.20;99.90
26595;DHT22;14238;49.496;8.154;2022-11-20T11:32:49;9.30;99.90
26595;DHT22;14238;49.496;8.154;2022-11-20T11:35:26;9.90;99.90
26595;DHT22;14238;49.496;8.154;2022-11-20T11:38:01;10.10;99.90
26595;DHT22;14238;49.496;8.154;2022-11-20T11:40:29;11.10;99.90
26595;DHT22;14238;49.496;8.154;2022-11-20T11:43:02;12.30;99.90
26595;DHT22;14238;49.496;8.154;2022-11-20T11:45:29;13.30;99.90
26595;DHT22;14238;49.496;8.154;2022-11-20T11:48:00;14.80;99.90
26595;DHT22;14238;49.496;8.154;2022-11-20T11:50:29;16.00;99.90
26595;DHT22;14238;49.496;8.154;2022-11-20T12:00:54;13.90;99.90
26595;DHT22;14238;49.496;8.154;2022-11-20T12:03:27;14.10;99.90
26595;DHT22;14238;49.496;8.154;2022-11-20T12:06:13;12.90;99.90
26595;DHT22;14238;49.496;8.154;2022-11-20T12:08:59;11.00;99.90
26595;DHT22;14238;49.496;8.154;2022-11-20T12:11:35;9.70;99.90
26595;DHT22;14238;49.496;8.154;2022-11-20T12:14:14;9.50;99.90
26595;DHT22;14238;49.496;8.154;2022-11-20T12:16:41;9.20;99.90
26595;DHT22;14238;49.496;8.154;2022-11-20T12:19:14;9.00;99.90
26595;DHT22;14238;49.496;8.154;2022-11-20T12:21:53;9.00;99.90
26595;DHT22;14238;49.496;8.154;2022-11-20T12:24:42;9.00;99.90
26595;DHT22;14238;49.496;8.154;2022-11-20T12:30:10;9.40;99.90
26595;DHT22;14238;49.496;8.154;2022-11-20T12:41:12;8.60;99.90
26595;DHT22;14238;49.496;8.154;2022-11-20T12:47:24;8.40;99.90
26595;DHT22;14238;49.496;8.154;2022-11-20T12:52:48;8.40;99.90
26595;DHT22;14238;49.496;8.154;2022-11-20T12:58:15;8.40;99.90
26595;DHT22;14238;49.496;8.154;2022-11-20T13:01:03;8.50;99.90
26595;DHT22;14238;49.496;8.154;2022-11-20T13:03:38;8.50;99.90
26595;DHT22;14238;49.496;8.154;2022-11-20T13:06:12;8.50;99.90
26595;DHT22;14238;49.496;8.154;2022-11-20T13:08:40;8.50;99.90
26595;DHT22;14238;49.496;8.154;2022-11-20T13:11:31;8.50;99.90
26595;DHT22;14238;49.496;8.154;2022-11-20T13:16:41;8.70;99.90
26595;DHT22;14238;49.496;8.154;2022-11-20T13:19:13;8.70;99.90
26595;DHT22;14238;49.496;8.154;2022-11-20T13:21:41;8.70;99.90
26595;DHT22;14238;49.496;8.154;2022-11-20T13:24:23;8.70;99.90
26595;DHT22;14238;49.496;8.154;2022-11-20T13:29:37;8.60;99.90
26595;DHT22;14238;49.496;8.154;2022-11-20T13:34:39;8.50;99.90
26595;DHT22;14238;49.496;8.154;2022-11-20T13:37:05;8.60;99.90
26595;DHT22;14238;49.496;8.154;2022-11-20T13:39:32;8.90;99.90
26595;DHT22;14238;49.496;8.154;2022-11-20T13:44:44;9.10;99.90
26595;DHT22;14238;49.496;8.154;2022-11-20T13:47:27;9.20;99.90
26595;DHT22;14238;49.496;8.154;2022-11-20T13:49:54;9.00;99.90
26595;DHT22;14238;49.496;8.154;2022-11-20T13:52:40;8.90;99.90
26595;DHT22;14238;49.496;8.154;2022-11-20T14:03:36;8.50;99.90
26595;DHT22;14238;49.496;8.154;2022-11-20T14:06:04;8.50;99.90
26595;DHT22;14238;49.496;8.154;2022-11-20T14:08:39;8.40;99.90
26595;DHT22;14238;49.496;8.154;2022-11-20T14:13:49;8.30;99.90
26595;DHT22;14238;49.496;8.154;2022-11-20T14:16:20;8.30;99.90
26595;DHT22;14238;49.496;8.154;2022-11-20T14:18:45;8.20;99.90
26595;DHT22;14238;49.496;8.154;2022-11-20T14:21:11;8.20;99.90
26595;DHT22;14238;49.496;8.154;2022-11-20T14:23:36;8.10;99.90
26595;DHT22;14238;49.496;8.154;2022-11-20T14:26:04;8.00;99.90
26595;DHT22;14238;49.496;8.154;2022-11-20T14:28:30;8.00;99.90
26595;DHT22;14238;49.496;8.154;2022-11-20T14:30:57;7.90;99.90
26595;DHT22;14238;49.496;8.154;2022-11-20T14:33:23;7.80;99.90
26595;DHT22;14238;49.496;8.154;2022-11-20T14:35:57;7.80;99.90
26595;DHT22;14238;49.496;8.154;2022-11-20T14:38:31;7.80;99.90
26595;DHT22;14238;49.496;8.154;2022-11-20T14:41:17;7.80;99.90
26595;DHT22;14238;49.496;8.154;2022-11-20T14:43:51;7.80;99.90
26595;DHT22;14238;49.496;8.154;2022-11-20T14:46:18;7.70;99.90
26595;DHT22;14238;49.496;8.154;2022-11-20T14:48:51;7.70;99.90
26595;DHT22;14238;49.496;8.154;2022-11-20T14:54:07;7.60;99.90
26595;DHT22;14238;49.496;8.154;2022-11-20T14:56:32;7.50;99.90
26595;DHT22;14238;49.496;8.154;2022-11-20T14:58:58;7.60;99.90
26595;DHT22;14238;49.496;8.154;2022-11-20T15:01:32;7.60;99.90
26595;DHT22;14238;49.496;8.154;2022-11-20T15:04:09;7.60;99.90
26595;DHT22;14238;49.496;8.154;2022-11-20T15:06:35;7.40;99.90
26595;DHT22;14238;49.496;8.154;2022-11-20T15:09:04;7.40;99.90
26595;DHT22;14238;49.496;8.154;2022-11-20T15:11:34;7.40;99.90
26595;DHT22;14238;49.496;8.154;2022-11-20T15:14:06;7.30;99.90
26595;DHT22;14238;49.496;8.154;2022-11-20T15:16:32;7.30;99.90
26595;DHT22;14238;49.496;8.154;2022-11-20T15:18:58;7.30;99.90
26595;DHT22;14238;49.496;8.154;2022-11-20T15:21:24;7.30;99.90
26595;DHT22;14238;49.496;8.154;2022-11-20T15:23:50;7.30;99.90
26595;DHT22;14238;49.496;8.154;2022-11-20T15:26:26;7.20;99.90
26595;DHT22;14238;49.496;8.154;2022-11-20T15:28:52;7.10;99.90
26595;DHT22;14238;49.496;8.154;2022-11-20T15:31:20;7.00;99.90
26595;DHT22;14238;49.496;8.154;2022-11-20T15:33:46;7.00;99.90
26595;DHT22;14238;49.496;8.154;2022-11-20T15:36:12;7.00;99.90
26595;DHT22;14238;49.496;8.154;2022-11-20T15:38:37;7.00;99.90
26595;DHT22;14238;49.496;8.154;2022-11-20T15:41:03;7.00;99.90
26595;DHT22;14238;49.496;8.154;2022-11-20T15:43:29;6.90;99.90
26595;DHT22;14238;49.496;8.154;2022-11-20T15:46:08;6.90;99.90
26595;DHT22;14238;49.496;8.154;2022-11-20T15:48:43;7.00;99.90
26595;DHT22;14238;49.496;8.154;2022-11-20T15:53:35;7.00;99.90
26595;DHT22;14238;49.496;8.154;2022-11-20T15:56:01;7.00;99.90
26595;DHT22;14238;49.496;8.154;2022-11-20T15:58:27;6.90;99.90
26595;DHT22;14238;49.496;8.154;2022-11-20T16:00:52;6.90;99.90
26595;DHT22;14238;49.496;8.154;2022-11-20T16:03:18;6.90;99.90
26595;DHT22;14238;49.496;8.154;2022-11-20T16:05:44;7.00;99.90
26595;DHT22;14238;49.496;8.154;2022-11-20T16:08:10;7.00;99.90
26595;DHT22;14238;49.496;8.154;2022-11-20T16:10:36;7.00;99.90
26595;DHT22;14238;49.496;8.154;2022-11-20T16:13:02;6.90;99.90
26595;DHT22;14238;49.496;8.154;2022-11-20T16:15:51;6.90;99.90
26595;DHT22;14238;49.496;8.154;2022-11-20T16:18:19;6.90;99.90
26595;DHT22;14238;49.496;8.154;2022-11-20T16:20:47;7.00;99.90
26595;DHT22;14238;49.496;8.154;2022-11-20T16:23:13;7.00;99.90
26595;DHT22;14238;49.496;8.154;2022-11-20T16:25:38;7.00;99.90
26595;DHT22;14238;49.496;8.154;2022-11-20T16:28:04;6.90;99.90
26595;DHT22;14238;49.496;8.154;2022-11-20T16:30:31;6.80;99.90
26595;DHT22;14238;49.496;8.154;2022-11-20T16:32:58;6.90;99.90
26595;DHT22;14238;49.496;8.154;2022-11-20T16:35:26;6.90;99.90
26595;DHT22;14238;49.496;8.154;2022-11-20T16:37:52;6.90;99.90
26595;DHT22;14238;49.496;8.154;2022-11-20T16:40:18;6.90;99.90
26595;DHT22;14238;49.496;8.154;2022-11-20T16:42:43;6.90;99.90
26595;DHT22;14238;49.496;8.154;2022-11-20T16:45:09;6.80;99.90
26595;DHT22;14238;49.496;8.154;2022-11-20T16:47:35;6.80;99.90
26595;DHT22;14238;49.496;8.154;2022-11-20T16:50:01;6.80;99.90
26595;DHT22;14238;49.496;8.154;2022-11-20T16:52:27;6.70;99.90
26595;DHT22;14238;49.496;8.154;2022-11-20T16:54:53;6.60;99.90
26595;DHT22;14238;49.496;8.154;2022-11-20T16:57:18;6.50;99.90
26595;DHT22;14238;49.496;8.154;2022-11-20T16:59:44;6.60;99.90
26595;DHT22;14238;49.496;8.154;2022-11-20T17:02:10;6.60;99.90
26595;DHT22;14238;49.496;8.154;2022-11-20T17:04:36;6.60;99.90
26595;DHT22;14238;49.496;8.154;2022-11-20T17:07:01;6.50;99.90
26595;DHT22;14238;49.496;8.154;2022-11-20T17:09:28;6.50;99.90
26595;DHT22;14238;49.496;8.154;2022-11-20T17:11:53;6.50;99.90
26595;DHT22;14238;49.496;8.154;2022-11-20T17:14:19;6.50;99.90
26595;DHT22;14238;49.496;8.154;2022-11-20T17:16:45;6.50;99.90
26595;DHT22;14238;49.496;8.154;2022-11-20T17:19:11;6.50;99.90
26595;DHT22;14238;49.496;8.154;2022-11-20T17:21:37;6.50;99.90
26595;DHT22;14238;49.496;8.154;2022-11-20T17:24:05;6.50;99.90
26595;DHT22;14238;49.496;8.154;2022-11-20T17:26:32;6.50;99.90